Time;durP1;ratioP1;P1;durP2;ratioP2;P2;SDS_P1;SDS_P2;PMS_P1;PMS_P2;Temp;Humidity;BMP_temperature;BMP_pressure;BME280_temperature;BME280_humidity;BME280_pressure;Samples;Min_cycle;Max_cycle;Signal;HPM_P1;HPM_P2
2023/06/13 00:00:31;;;;;;;;;16.00;15.00;;;;;23.81;56.97;100557.97;6149034;23;45272;-56
2023/06/13 00:02:58;;;;;;;;;24.00;19.00;;;;;23.92;57.10;100576.75;6149146;23;45329;-56
2023/06/13 00:05:23;;;;;;;;;16.00;14.33;;;;;23.93;56.83;100575.84;6149200;23;45424;-56
2023/06/13 00:07:49;;;;;;;;;23.33;19.67;;;;;23.92;56.94;100572.22;6149163;23;45497;-54
2023/06/13 00:10:15;;;;;;;;;21.33;17.67;;;;;23.87;56.81;100556.91;6148300;23;45333;-54
2023/06/13 00:12:44;;;;;;;;;24.33;17.33;;;;;23.16;56.84;100439.09;6148159;23;45256;-55
2023/06/13 00:15:11;;;;;;;;;20.00;18.00;;;;;23.89;57.06;100571.41;6148856;23;45450;-60
2023/06/13 00:17:38;;;;;;;;;18.67;17.00;;;;;23.80;56.75;100550.72;6149570;23;45360;-55
2023/06/13 00:20:07;;;;;;;;;17.00;17.00;;;;;23.86;56.95;100563.34;6148736;23;45488;-56
2023/06/13 00:22:33;;;;;;;;;28.00;19.00;;;;;23.85;56.58;100558.81;6148916;23;45282;-55
2023/06/13 00:24:58;;;;;;;;;21.33;16.33;;;;;23.86;56.70;100564.22;6148448;23;45336;-55
2023/06/13 00:27:24;;;;;;;;;22.33;17.33;;;;;23.77;56.32;100539.03;6149219;23;45423;-54
2023/06/13 00:29:49;;;;;;;;;18.33;17.67;;;;;23.83;56.59;100566.16;6147961;23;45403;-55
2023/06/13 00:32:17;;;;;;;;;23.67;20.00;;;;;23.80;56.74;100558.03;6147760;23;45279;-55
2023/06/13 00:34:43;;;;;;;;;23.00;18.33;;;;;23.74;56.54;100557.28;6148626;23;45466;-55
2023/06/13 00:37:12;;;;;;;;;20.00;18.33;;;;;23.72;56.98;100558.25;6148010;23;45485;-57
2023/06/13 00:39:38;;;;;;;;;18.33;17.33;;;;;23.69;56.55;100545.63;6147872;23;46943;-55
2023/06/13 00:42:06;;;;;;;;;16.67;14.67;;;;;23.56;56.66;100533.31;6147331;23;45385;-53
2023/06/13 00:44:32;;;;;;;;;18.00;15.00;;;;;23.60;56.72;100542.28;6148209;23;45343;-58
2023/06/13 00:46:57;;;;;;;;;18.67;15.33;;;;;23.59;56.99;100541.38;6122078;23;45555;-54
2023/06/13 00:49:25;;;;;;;;;17.67;14.67;;;;;23.59;57.03;100555.00;6149195;23;45233;-56
2023/06/13 00:51:51;;;;;;;;;20.33;18.33;;;;;23.61;56.84;100547.69;6153500;23;45216;-55
2023/06/13 00:54:18;;;;;;;;;20.00;17.67;;;;;23.56;57.23;100541.50;6152667;23;45349;-57
2023/06/13 00:56:45;;;;;;;;;21.33;20.33;;;;;23.54;56.66;100540.63;6150186;23;45539;-54
2023/06/13 00:59:12;;;;;;;;;20.67;19.00;;;;;23.57;57.10;100534.19;6122083;23;46081;-54
2023/06/13 01:01:40;;;;;;;;;20.67;19.33;;;;;23.55;56.71;100540.59;6149828;23;45559;-56
2023/06/13 01:04:07;;;;;;;;;25.00;21.00;;;;;23.54;56.94;100538.81;6149616;23;45321;-56
2023/06/13 01:06:38;;;;;;;;;23.67;20.33;;;;;23.45;56.86;100521.84;6151441;23;45436;-58
2023/06/13 01:09:05;;;;;;;;;22.33;15.00;;;;;23.50;56.65;100536.22;6150146;23;46286;-56
2023/06/13 01:11:36;;;;;;;;;19.67;16.33;;;;;23.51;56.73;100538.00;6149258;23;45354;-55
2023/06/13 01:14:14;;;;;;;;;19.00;16.67;;;;;23.50;56.67;100531.66;6149496;23;45316;-56
2023/06/13 01:16:47;;;;;;;;;22.67;18.00;;;;;23.45;56.35;100539.09;6149349;23;45444;-56
2023/06/13 01:19:43;;;;;;;;;19.67;16.67;;;;;23.35;56.70;100541.19;6148855;23;47104;-56
2023/06/13 01:22:21;;;;;;;;;22.00;18.67;;;;;23.30;56.91;100540.44;6136183;23;45485;-55
2023/06/13 01:25:20;;;;;;;;;17.67;15.67;;;;;23.19;57.30;100520.78;6149874;23;45328;-55
2023/06/13 01:27:49;;;;;;;;;19.67;17.67;;;;;23.25;57.02;100522.44;6149122;23;44879;-54
2023/06/13 01:30:15;;;;;;;;;25.00;19.67;;;;;23.24;57.17;100528.81;6149153;23;46113;-56
2023/06/13 01:32:43;;;;;;;;;20.00;20.00;;;;;23.22;57.34;100531.59;6148817;23;45306;-57
2023/06/13 01:35:08;;;;;;;;;19.67;17.67;;;;;23.20;57.43;100528.03;6149382;23;45306;-57
2023/06/13 01:37:34;;;;;;;;;15.00;15.00;;;;;23.16;57.44;100518.13;6150024;23;45378;-55
2023/06/13 01:40:02;;;;;;;;;18.33;16.00;;;;;23.10;57.28;100512.84;6149881;23;45971;-54
2023/06/13 01:42:28;;;;;;;;;25.67;21.00;;;;;23.13;57.51;100529.13;6122970;23;45261;-55
2023/06/13 01:44:53;;;;;;;;;24.00;22.00;;;;;23.05;57.52;100512.06;6149359;23;45253;-54
2023/06/13 01:47:32;;;;;;;;;18.33;16.67;;;;;23.08;57.50;100528.38;6150101;23;45427;-55
2023/06/13 01:50:15;;;;;;;;;22.00;18.67;;;;;23.05;57.60;100517.53;6147464;23;46043;-54
2023/06/13 01:53:02;;;;;;;;;20.67;17.00;;;;;23.03;57.97;100523.00;6124201;23;45410;-55
2023/06/13 01:55:47;;;;;;;;;19.33;16.67;;;;;23.07;58.12;100532.94;6149475;23;45398;-54
2023/06/13 01:58:24;;;;;;;;;18.33;18.33;;;;;22.94;58.17;100504.22;6149677;23;45312;-54
2023/06/13 02:00:56;;;;;;;;;16.67;15.33;;;;;23.01;58.05;100508.56;6148506;23;46067;-55
2023/06/13 02:03:23;;;;;;;;;19.33;14.67;;;;;23.02;58.09;100521.25;6148651;23;45344;-58
2023/06/13 02:05:49;;;;;;;;;20.33;15.67;;;;;22.98;57.77;100527.69;6147744;23;45292;-53
2023/06/13 02:08:16;;;;;;;;;19.00;16.33;;;;;22.95;58.11;100528.72;6122467;23;45394;-56
2023/06/13 02:10:41;;;;;;;;;16.00;15.67;;;;;22.94;57.96;100524.19;6148335;23;45465;-55
2023/06/13 02:13:06;;;;;;;;;17.67;16.67;;;;;22.89;57.99;100511.66;6149073;23;45301;-53
2023/06/13 02:15:32;;;;;;;;;20.33;15.00;;;;;22.95;57.96;100515.09;6149270;23;45404;-55
2023/06/13 02:17:57;;;;;;;;;17.33;17.33;;;;;22.95;57.83;100516.88;6149462;23;45351;-54
2023/06/13 02:20:22;;;;;;;;;18.00;13.33;;;;;22.91;58.07;100510.66;6148230;23;48155;-55
2023/06/13 02:22:48;;;;;;;;;17.00;16.33;;;;;22.92;57.87;100509.72;6148284;23;45336;-55
2023/06/13 02:25:14;;;;;;;;;17.00;14.67;;;;;22.90;57.63;100507.97;6148589;23;45172;-55
2023/06/13 02:27:39;;;;;;;;;16.67;14.00;;;;;22.92;57.87;100512.44;6150313;23;45389;-54
2023/06/13 02:30:08;;;;;;;;;18.00;17.33;;;;;22.91;57.80;100507.03;6150031;23;46020;-55
2023/06/13 02:32:36;;;;;;;;;21.33;19.33;;;;;22.79;57.83;100503.72;6148253;23;45426;-55
2023/06/13 02:35:02;;;;;;;;;21.00;18.33;;;;;22.68;58.03;100478.59;6149568;23;45317;-54
2023/06/13 02:37:27;;;;;;;;;19.00;17.33;;;;;22.84;57.60;100509.03;6150727;23;45336;-53
2023/06/13 02:39:53;;;;;;;;;18.67;16.67;;;;;22.83;57.87;100507.25;6153914;23;52010;-55
2023/06/13 02:42:18;;;;;;;;;18.33;17.00;;;;;22.82;57.81;100513.66;6148809;23;45306;-55
2023/06/13 02:44:44;;;;;;;;;18.67;15.67;;;;;22.80;58.08;100501.88;6149507;23;45454;-54
2023/06/13 02:47:09;;;;;;;;;15.67;12.33;;;;;22.80;57.85;100505.53;6149204;23;45446;-56
2023/06/13 02:49:35;;;;;;;;;20.33;18.33;;;;;22.80;57.81;100501.88;6148480;23;47171;-54
2023/06/13 02:52:01;;;;;;;;;20.67;16.33;;;;;22.72;58.04;100493.03;6148570;23;45427;-53
2023/06/13 02:54:26;;;;;;;;;17.00;17.00;;;;;22.77;57.88;100505.59;6121903;23;45233;-53
2023/06/13 02:56:51;;;;;;;;;21.33;20.67;;;;;22.70;58.02;100482.16;6148205;23;45424;-54
2023/06/13 02:59:17;;;;;;;;;20.67;16.00;;;;;21.87;58.08;100349.22;6148448;23;45598;-54
2023/06/13 03:01:42;;;;;;;;;18.33;18.00;;;;;22.71;58.10;100493.97;6121913;23;45370;-54
2023/06/13 03:04:07;;;;;;;;;23.50;21.50;;;;;22.62;58.35;100492.41;6149947;23;45315;-54
2023/06/13 03:06:33;;;;;;;;;18.67;15.67;;;;;22.61;58.46;100496.06;6149764;23;45489;-54
2023/06/13 03:08:58;;;;;;;;;27.33;20.33;;;;;22.67;58.27;100501.34;6149653;23;45327;-54
2023/06/13 03:11:24;;;;;;;;;20.33;17.00;;;;;22.60;58.48;100494.25;6148021;23;45380;-56
2023/06/13 03:13:50;;;;;;;;;22.33;19.00;;;;;22.56;58.37;100479.84;6147558;23;45509;-54
2023/06/13 03:16:17;;;;;;;;;25.50;19.50;;;;;22.48;58.42;100472.84;6148241;23;45408;-55
2023/06/13 03:18:43;;;;;;;;;19.00;18.00;;;;;22.63;58.49;100500.50;6148897;23;45331;-54
2023/06/13 03:21:08;;;;;;;;;19.67;16.00;;;;;22.61;58.26;100502.41;6148272;23;45419;-54
2023/06/13 03:23:33;;;;;;;;;21.00;17.67;;;;;22.50;58.60;100493.63;6120933;23;45284;-53
2023/06/13 03:26:00;;;;;;;;;19.00;19.00;;;;;22.60;58.70;100510.59;6147980;23;45174;-55
2023/06/13 03:28:26;;;;;;;;;24.00;16.00;;;;;22.55;58.28;100501.66;6149275;23;45297;-56
2023/06/13 03:30:51;;;;;;;;;18.00;17.00;;;;;22.55;58.49;100508.00;6148686;23;45271;-54
2023/06/13 03:33:17;;;;;;;;;18.00;16.33;;;;;22.58;58.46;100510.66;6147995;23;45261;-56
2023/06/13 03:35:42;;;;;;;;;20.67;17.67;;;;;22.58;58.48;100505.19;6149677;23;45570;-55
2023/06/13 03:38:08;;;;;;;;;18.67;17.00;;;;;21.65;58.49;100345.31;6149016;23;46343;-54
2023/06/13 03:40:33;;;;;;;;;18.33;16.33;;;;;22.36;58.49;100469.50;6148825;23;45296;-53
2023/06/13 03:42:58;;;;;;;;;20.33;16.33;;;;;22.49;58.61;100493.66;6148324;23;45284;-56
2023/06/13 03:45:27;;;;;;;;;21.33;17.33;;;;;22.52;58.85;100501.75;6122585;23;45651;-54
2023/06/13 03:47:52;;;;;;;;;21.00;18.00;;;;;22.49;58.93;100502.75;6147843;23;46277;-54
2023/06/13 03:50:17;;;;;;;;;19.00;18.00;;;;;22.49;58.89;100497.28;6148058;23;45287;-54
2023/06/13 03:52:43;;;;;;;;;24.33;19.67;;;;;22.49;58.89;100510.91;6146859;23;45603;-55
2023/06/13 03:55:08;;;;;;;;;22.00;17.33;;;;;22.47;58.70;100510.03;6149311;23;45447;-55
2023/06/13 03:57:34;;;;;;;;;21.67;19.00;;;;;22.44;58.84;100505.59;6148304;23;45915;-54
2023/06/13 03:59:59;;;;;;;;;43.25;36.25;;;;;22.45;59.08;100517.34;6148080;23;45249;-54
2023/06/13 04:02:25;;;;;;;;;23.50;21.75;;;;;22.34;59.04;100494.97;6148983;23;45322;-56
2023/06/13 04:04:52;;;;;;;;;22.50;18.25;;;;;22.41;58.89;100513.81;6149076;23;45313;-52
2023/06/13 04:07:21;;;;;;;;;20.00;16.00;;;;;22.41;58.97;100513.81;6149095;23;45911;-58
2023/06/13 04:09:47;;;;;;;;;24.33;20.67;;;;;22.43;59.02;100516.50;6148681;23;45492;-55
2023/06/13 04:12:12;;;;;;;;;20.67;17.00;;;;;22.42;58.97;100515.63;6149621;23;45541;-56
2023/06/13 04:14:38;;;;;;;;;17.00;16.33;;;;;22.42;59.09;100517.44;6122507;23;45610;-54
2023/06/13 04:17:03;;;;;;;;;21.33;17.33;;;;;22.27;59.02;100486.94;6149174;23;53572;-53
2023/06/13 04:19:29;;;;;;;;;21.33;18.33;;;;;22.37;58.98;100522.09;6149382;23;45294;-53
2023/06/13 04:21:55;;;;;;;;;13.00;12.67;;;;;22.13;58.99;100474.63;6148391;23;45307;-53
2023/06/13 04:24:21;;;;;;;;;21.33;17.67;;;;;22.02;58.88;100474.91;6150563;23;45405;-55
2023/06/13 04:26:47;;;;;;;;;18.00;18.00;;;;;22.35;58.86;100518.53;6154091;23;45372;-55
2023/06/13 04:29:17;;;;;;;;;21.00;15.00;;;;;22.29;59.04;100516.88;6152204;23;45478;-54
2023/06/13 04:31:42;;;;;;;;;20.33;17.67;;;;;22.34;58.77;100533.06;6149638;23;45466;-59
2023/06/13 04:34:11;;;;;;;;;20.33;19.00;;;;;22.34;58.79;100536.72;6151824;23;45220;-62
2023/06/13 04:36:38;;;;;;;;;22.00;18.00;;;;;22.30;58.76;100528.66;6152272;23;46427;-54
2023/06/13 04:39:07;;;;;;;;;24.75;23.00;;;;;22.08;58.85;100491.06;6152332;23;45198;-56
2023/06/13 04:41:37;;;;;;;;;15.33;15.00;;;;;22.36;58.78;100533.94;6152684;23;45325;-62
2023/06/13 04:44:03;;;;;;;;;26.67;19.33;;;;;22.37;58.78;100525.75;6125549;23;45510;-64
2023/06/13 04:46:30;;;;;;;;;19.00;17.00;;;;;21.38;58.55;100358.59;6151213;23;46062;-54
2023/06/13 04:48:57;;;;;;;;;17.67;15.00;;;;;22.41;58.48;100540.16;6151299;23;45454;-54
2023/06/13 04:51:23;;;;;;;;;16.67;15.00;;;;;22.43;58.50;100536.44;6151311;23;45483;-57
2023/06/13 04:53:49;;;;;;;;;20.00;17.33;;;;;22.39;58.35;100539.28;6152893;23;45233;-55
2023/06/13 04:56:15;;;;;;;;;19.33;18.00;;;;;22.18;58.46;100505.34;6151519;23;45275;-53
2023/06/13 04:58:40;;;;;;;;;20.33;19.33;;;;;22.38;58.50;100537.50;6125053;23;45317;-55
2023/06/13 05:01:07;;;;;;;;;20.33;16.33;;;;;22.40;58.39;100539.25;6151098;23;45283;-57
2023/06/13 05:03:33;;;;;;;;;22.33;16.67;;;;;22.41;58.08;100535.59;6153106;23;45430;-54
2023/06/13 05:05:58;;;;;;;;;26.00;21.00;;;;;22.37;58.46;100524.81;6150807;23;45320;-52
2023/06/13 05:08:24;;;;;;;;;19.33;17.67;;;;;;;;6151052;23;53425;-54
2023/06/13 05:10:49;;;;;;;;;16.67;16.67;;;;;22.42;58.30;100534.69;6151931;23;45580;-55
2023/06/13 05:13:15;;;;;;;;;23.00;18.00;;;;;22.43;58.40;100538.28;6152010;23;45446;-55
2023/06/13 05:15:42;;;;;;;;;23.25;19.25;;;;;22.40;58.23;100522.91;6151853;23;46167;-55
2023/06/13 05:18:12;;;;;;;;;23.75;20.50;;;;;22.36;58.17;100518.50;6150417;23;45520;-54
2023/06/13 05:20:37;;;;;;;;;28.25;23.50;;;;;22.49;57.99;100535.41;6151724;23;45245;-55
2023/06/13 05:23:03;;;;;;;;;25.25;23.50;;;;;22.52;58.04;100528.97;6152354;23;45536;-54
2023/06/13 05:25:29;;;;;;;;;31.25;20.00;;;;;22.55;57.88;100540.69;6152197;23;45292;-61
2023/06/13 05:27:58;;;;;;;;;27.67;19.33;;;;;22.56;57.53;100537.03;6124498;23;45438;-58
2023/06/13 05:30:24;;;;;;;;;25.75;24.50;;;;;22.54;57.41;100533.47;6150897;23;45459;-56
2023/06/13 05:32:50;;;;;;;;;25.00;18.00;;;;;22.52;57.36;100524.44;6124740;23;45478;-55
2023/06/13 05:35:15;;;;;;;;;23.33;18.00;;;;;22.52;57.62;100512.63;6150042;23;46392;-55
2023/06/13 05:37:41;;;;;;;;;25.67;18.67;;;;;22.56;57.35;100523.41;6148359;23;45283;-66
2023/06/13 05:40:08;;;;;;;;;23.33;21.67;;;;;22.56;57.65;100526.13;6148710;23;45370;-67
2023/06/13 05:42:35;;;;;;;;;22.00;20.33;;;;;22.53;57.67;100517.16;6152156;23;45319;-64
2023/06/13 05:45:08;;;;;;;;;20.00;18.00;;;;;22.61;57.57;100520.56;6124159;23;45601;-64
2023/06/13 05:47:34;;;;;;;;;33.33;24.67;;;;;22.55;57.39;100504.41;6147416;23;45365;-67
2023/06/13 05:50:00;;;;;;;;;26.50;20.75;;;;;22.62;57.30;100509.66;6123340;23;45349;-64
2023/06/13 05:52:26;;;;;;;;;24.50;21.75;;;;;22.69;56.96;100523.09;6158757;23;45551;-60
2023/06/13 05:54:52;;;;;;;;;23.00;19.67;;;;;22.64;56.86;100523.22;6157207;23;46049;-61
2023/06/13 05:57:18;;;;;;;;;19.00;16.00;;;;;22.66;56.42;100542.25;6149114;23;45382;-60
2023/06/13 05:59:43;;;;;;;;;23.33;18.67;;;;;22.55;56.79;100528.91;6149568;23;45329;-62
2023/06/13 06:02:10;;;;;;;;;30.25;20.50;;;;;21.76;56.98;100399.41;6148678;23;48553;-63
2023/06/13 06:04:36;;;;;;;;;28.75;24.50;;;;;22.52;56.76;100532.63;6148381;23;45454;-62
2023/06/13 06:07:01;;;;;;;;;30.50;22.25;;;;;22.63;56.58;100540.47;6147083;23;45344;-67
2023/06/13 06:09:27;;;;;;;;;27.25;24.75;;;;;22.66;56.58;100536.78;6148716;23;45458;-59
2023/06/13 06:11:52;;;;;;;;;30.50;25.75;;;;;22.81;56.25;100537.25;6149286;23;45316;-55
2023/06/13 06:14:18;;;;;;;;;64.00;47.50;;;;;22.89;56.09;100531.59;6150913;23;45307;-52
2023/06/13 06:16:43;;;;;;;;;28.25;26.50;;;;;22.95;55.86;100528.72;6156379;23;45296;-53
2023/06/13 06:19:09;;;;;;;;;27.25;23.75;;;;;22.90;55.37;100517.06;6156671;23;45281;-55
2023/06/13 06:21:34;;;;;;;;;21.33;18.33;;;;;23.00;55.21;100514.97;6124700;23;45448;-57
2023/06/13 06:24:00;;;;;;;;;24.00;22.25;;;;;22.99;55.09;100494.09;6148486;23;46378;-56
2023/06/13 06:26:26;;;;;;;;;21.00;18.67;;;;;23.14;54.37;100517.31;6148689;23;45341;-59
2023/06/13 06:28:52;;;;;;;;;25.67;24.00;;;;;23.19;53.86;100507.16;6148990;23;45221;-55
2023/06/13 06:31:17;;;;;;;;;23.00;18.33;;;;;23.25;53.68;100519.72;6150084;23;45252;-57
2023/06/13 06:33:43;;;;;;;;;22.25;22.25;;;;;23.29;53.63;100525.00;6149041;23;45525;-55
2023/06/13 06:36:08;;;;;;;;;22.67;19.67;;;;;23.31;53.33;100508.59;6148989;23;45317;-60
2023/06/13 06:38:34;;;;;;;;;40.75;30.25;;;;;23.39;53.06;100509.28;6121973;23;45331;-62
2023/06/13 06:40:59;;;;;;;;;33.50;28.25;;;;;23.49;52.92;100518.06;6148288;23;50562;-54
2023/06/13 06:43:24;;;;;;;;;26.67;25.33;;;;;23.32;53.03;100485.88;6149178;23;46416;-61
2023/06/13 06:45:50;;;;;;;;;23.33;23.33;;;;;23.60;52.40;100518.63;6149356;23;45343;-59
2023/06/13 06:48:16;;;;;;;;;24.67;18.67;;;;;23.55;51.93;100499.69;6149794;23;45245;-56
2023/06/13 06:50:42;;;;;;;;;22.00;16.67;;;;;23.66;51.87;100509.34;6123722;23;45364;-58
2023/06/13 06:53:07;;;;;;;;;17.00;16.33;;;;;23.56;50.86;100481.50;6149848;23;45376;-59
2023/06/13 06:55:33;;;;;;;;;20.00;18.67;;;;;23.74;51.21;100505.47;6148504;23;45295;-59
2023/06/13 06:57:58;;;;;;;;;23.00;22.33;;;;;23.80;51.08;100501.63;6149764;23;45345;-58
2023/06/13 07:00:24;;;;;;;;;25.67;19.67;;;;;23.86;50.70;100501.47;6149877;23;45389;-61
2023/06/13 07:02:49;;;;;;;;;20.67;17.67;;;;;23.69;49.89;100462.88;6149039;23;46130;-61
2023/06/13 07:05:18;;;;;;;;;5.33;4.33;;;;;23.92;49.00;100495.81;6149813;23;45495;-58
2023/06/13 07:07:44;;;;;;;;;20.33;18.00;;;;;23.74;48.63;100449.97;6149694;23;45240;-55
2023/06/13 07:10:10;;;;;;;;;19.33;16.33;;;;;24.08;48.47;100507.09;6122928;23;45309;-56
2023/06/13 07:12:36;;;;;;;;;21.00;19.00;;;;;24.14;48.63;100508.75;6148404;23;45439;-56
2023/06/13 07:15:02;;;;;;;;;17.67;17.33;;;;;24.20;48.73;100513.97;6148737;23;45239;-56
2023/06/13 07:17:29;;;;;;;;;18.67;17.33;;;;;24.01;48.53;100467.31;6148713;23;45285;-56
2023/06/13 07:19:54;;;;;;;;;16.67;16.67;;;;;24.31;47.43;100515.47;6148570;23;45431;-57
2023/06/13 07:22:20;;;;;;;;;20.33;18.33;;;;;24.30;47.01;100511.81;6149183;23;45183;-58
2023/06/13 07:24:45;;;;;;;;;21.00;19.33;;;;;24.42;47.02;100510.53;6149879;23;45327;-54
2023/06/13 07:27:11;;;;;;;;;15.33;12.00;;;;;24.30;47.57;100492.72;6149400;23;45312;-56
2023/06/13 07:29:36;;;;;;;;;26.75;24.75;;;;;24.53;47.08;100515.59;6149428;23;45296;-60
2023/06/13 07:32:02;;;;;;;;;17.00;16.33;;;;;24.58;47.15;100522.75;6122173;23;46478;-60
2023/06/13 07:34:27;;;;;;;;;17.67;15.33;;;;;24.65;46.81;100518.81;6148371;23;45308;-55
2023/06/13 07:36:54;;;;;;;;;19.00;17.67;;;;;24.69;46.67;100502.34;6150087;23;45279;-55
2023/06/13 07:39:20;;;;;;;;;19.33;18.00;;;;;24.72;46.49;100516.75;6150165;23;45313;-54
2023/06/13 07:41:46;;;;;;;;;25.67;20.00;;;;;24.81;47.12;100521.00;6149624;23;45367;-57
2023/06/13 07:44:12;;;;;;;;;23.00;15.33;;;;;24.89;47.06;100518.00;6124153;23;45646;-55
2023/06/13 07:46:38;;;;;;;;;21.67;19.00;;;;;24.83;47.10;100499.97;6149176;23;45467;-56
2023/06/13 07:49:03;;;;;;;;;19.00;18.00;;;;;24.93;46.43;100500.53;6149470;23;45380;-58
2023/06/13 07:51:29;;;;;;;;;22.33;16.33;;;;;25.05;45.87;100515.59;6149933;23;46287;-58
2023/06/13 07:53:54;;;;;;;;;19.00;13.33;;;;;25.09;45.93;100512.66;6122510;23;45413;-56
2023/06/13 07:56:20;;;;;;;;;17.00;12.00;;;;;25.16;46.12;100496.91;6149787;23;45392;-58
2023/06/13 07:58:45;;;;;;;;;17.67;17.00;;;;;25.19;45.23;100492.25;6150231;23;45392;-57
2023/06/13 08:01:11;;;;;;;;;15.67;15.00;;;;;25.27;42.60;100494.69;6123050;23;47966;-57
2023/06/13 08:03:36;;;;;;;;;16.67;15.33;;;;;25.36;42.44;100505.28;6150124;23;45226;-59
2023/06/13 08:06:02;;;;;;;;;17.33;13.00;;;;;25.31;42.51;100479.97;6149742;23;45371;-58
2023/06/13 08:08:27;;;;;;;;;15.67;14.00;;;;;25.59;42.36;100508.97;6150278;23;45241;-59
2023/06/13 08:10:53;;;;;;;;;25.00;23.25;;;;;25.65;41.91;100499.63;6149544;23;45900;-57
2023/06/13 08:13:19;;;;;;;;;14.33;13.00;;;;;25.61;41.57;100476.97;6149153;23;45415;-61
2023/06/13 08:15:44;;;;;;;;;14.67;13.00;;;;;25.87;41.21;100511.47;6149870;23;45316;-59
2023/06/13 08:18:10;;;;;;;;;14.67;14.67;;;;;25.94;40.79;100504.78;6150224;23;45360;-56
2023/06/13 08:20:36;;;;;;;;;22.00;19.00;;;;;26.06;40.33;100503.41;6149416;23;45227;-58
2023/06/13 08:23:01;;;;;;;;;23.00;19.67;;;;;26.11;41.04;100505.97;6148139;23;45411;-57
2023/06/13 08:25:27;;;;;;;;;14.33;14.33;;;;;26.09;39.72;100488.72;6149557;23;45273;-57
2023/06/13 08:27:52;;;;;;;;;18.33;15.67;;;;;26.30;40.06;100506.97;6147348;23;45513;-57
2023/06/13 08:30:18;;;;;;;;;16.33;14.33;;;;;26.38;39.14;100500.25;6148913;23;45246;-60
2023/06/13 08:32:46;;;;;;;;;11.67;11.67;;;;;26.47;38.88;100498.00;6148392;23;45358;-57
2023/06/13 08:35:12;;;;;;;;;12.67;11.00;;;;;26.58;38.94;100488.41;6148345;23;45346;-59
2023/06/13 08:37:38;;;;;;;;;22.00;14.67;;;;;26.63;38.80;100473.59;6148621;23;45298;-55
2023/06/13 08:40:06;;;;;;;;;12.33;11.33;;;;;26.79;38.56;100492.97;6148961;23;45322;-56
2023/06/13 08:42:32;;;;;;;;;17.33;16.33;;;;;26.77;38.33;100472.97;6122371;23;45427;-58
2023/06/13 08:45:00;;;;;;;;;21.00;16.00;;;;;26.97;37.56;100485.75;6148233;23;45326;-58
2023/06/13 08:47:25;;;;;;;;;24.33;14.00;;;;;27.05;36.73;100485.41;6148992;23;45453;-61
2023/06/13 08:49:52;;;;;;;;;16.33;13.33;;;;;27.11;36.76;100473.25;6122074;23;46139;-59
2023/06/13 08:52:18;;;;;;;;;18.00;16.00;;;;;27.16;36.57;100468.47;6148048;23;45521;-62
2023/06/13 08:54:47;;;;;;;;;18.67;17.00;;;;;27.19;36.39;100471.03;6121333;23;45491;-63
2023/06/13 08:57:16;;;;;;;;;22.67;18.33;;;;;27.30;37.05;100482.44;6121482;23;45588;-60
2023/06/13 08:59:46;;;;;;;;;16.00;16.00;;;;;27.34;36.30;100474.94;6148204;23;45478;-57
2023/06/13 09:02:15;;;;;;;;;14.00;13.67;;;;;27.46;35.77;100481.72;6147338;23;45481;-58
2023/06/13 09:04:43;;;;;;;;;14.67;13.00;;;;;27.54;35.11;100482.25;6148861;23;45426;-60
2023/06/13 09:07:10;;;;;;;;;20.33;15.33;;;;;27.60;35.40;100475.53;6148837;23;45370;-58
2023/06/13 09:09:36;;;;;;;;;22.00;15.33;;;;;27.70;35.41;100482.34;6148104;23;46130;-58
2023/06/13 09:12:04;;;;;;;;;19.00;17.33;;;;;27.79;35.53;100487.41;6148310;23;45325;-60
2023/06/13 09:14:29;;;;;;;;;12.67;12.33;;;;;27.88;35.01;100486.03;6122758;23;45469;-65
2023/06/13 09:16:55;;;;;;;;;16.67;16.67;;;;;27.96;35.02;100493.94;6149680;23;45510;-57
2023/06/13 09:19:21;;;;;;;;;16.67;13.00;;;;;27.80;34.83;100458.09;6122949;23;47172;-58
2023/06/13 09:21:47;;;;;;;;;16.00;15.67;;;;;27.99;34.73;100472.69;6150718;23;45436;-58
2023/06/13 09:24:12;;;;;;;;;16.67;13.00;;;;;28.15;34.56;100492.06;6124496;23;45267;-59
2023/06/13 09:26:41;;;;;;;;;20.33;11.67;;;;;28.23;34.56;100488.88;6150931;23;45323;-61
2023/06/13 09:29:07;;;;;;;;;16.33;13.67;;;;;28.30;34.21;100487.63;6150071;23;45389;-66
2023/06/13 09:31:36;;;;;;;;;21.33;18.33;;;;;28.09;33.57;100437.41;6148933;23;45325;-56
2023/06/13 09:34:02;;;;;;;;;15.00;14.67;;;;;28.31;33.75;100461.91;6122834;23;45301;-56
2023/06/13 09:36:27;;;;;;;;;17.33;11.33;;;;;28.46;33.28;100482.19;6150222;23;45442;-56
2023/06/13 09:38:55;;;;;;;;;13.67;12.00;;;;;28.35;32.69;100458.03;6147199;23;48338;-61
2023/06/13 09:43:52;;;;;;;;;15.67;11.33;;;;;28.16;32.45;100416.00;6091328;23;45305;-60
2023/06/13 09:46:19;;;;;;;;;16.33;13.33;;;;;28.37;32.18;100442.34;6090645;23;45610;-62
2023/06/13 09:48:45;;;;;;;;;16.33;13.33;;;;;28.47;32.21;100454.63;6090893;23;45399;-59
2023/06/13 09:51:11;;;;;;;;;13.00;13.00;;;;;28.68;32.62;100482.88;6091216;23;45388;-58
2023/06/13 09:53:36;;;;;;;;;16.67;13.67;;;;;28.66;32.41;100472.94;6090863;23;45411;-58
2023/06/13 09:56:02;;;;;;;;;15.67;13.00;;;;;28.81;32.98;100479.50;6065009;23;45546;-64
2023/06/13 09:58:28;;;;;;;;;11.67;9.67;;;;;28.80;31.43;100464.81;6090703;23;45411;-62
2023/06/13 10:00:57;;;;;;;;;17.33;15.00;;;;;28.89;31.69;100484.53;6089955;23;45350;-62
2023/06/13 10:03:23;;;;;;;;;15.00;14.00;;;;;28.59;32.45;100433.00;6089860;23;45413;-61
2023/06/13 10:05:49;;;;;;;;;16.00;15.33;;;;;28.92;32.31;100485.25;6064914;23;45463;-68
2023/06/13 10:08:15;;;;;;;;;9.67;9.67;;;;;28.95;32.47;100489.72;6063755;23;47551;-60
2023/06/13 10:10:41;;;;;;;;;15.00;13.67;;;;;28.96;32.21;100481.38;6089772;23;45333;-60
2023/06/13 10:13:13;;;;;;;;;14.33;12.33;;;;;29.00;32.66;100471.09;6064314;23;45420;-57
2023/06/13 10:15:51;;;;;;;;;13.67;13.00;;;;;29.01;32.81;100472.88;6065206;23;45485;-60
2023/06/13 10:18:20;;;;;;;;;12.00;12.00;;;;;29.11;33.14;100490.66;6089837;23;45516;-58
2023/06/13 10:20:48;;;;;;;;;16.67;13.67;;;;;29.11;32.94;100484.28;6089952;23;45414;-61
2023/06/13 10:23:20;;;;;;;;;12.67;12.67;;;;;29.12;32.48;100488.78;6091635;23;45400;-58
2023/06/13 10:25:51;;;;;;;;;19.00;14.00;;;;;29.08;33.27;100481.69;6094303;23;45282;-63
2023/06/13 10:28:34;;;;;;;;;17.33;14.00;;;;;29.14;33.41;100487.75;6094183;23;46606;-61
2023/06/13 10:31:17;;;;;;;;;16.67;13.00;;;;;29.12;32.54;100486.94;6065775;23;45447;-65
2023/06/13 10:34:22;;;;;;;;;21.00;18.33;;;;;29.16;32.38;100491.28;6092459;23;45417;-71
2023/06/13 10:37:30;;;;;;;;;17.67;14.33;;;;;29.13;31.09;100485.94;6089886;23;45452;-68
2023/06/13 10:40:27;;;;;;;;;14.33;13.33;;;;;29.25;30.95;100489.03;6090157;23;46425;-60
2023/06/13 10:43:07;;;;;;;;;15.67;13.67;;;;;29.26;30.02;100488.06;6090157;23;45383;-59
2023/06/13 10:45:35;;;;;;;;;12.33;12.33;;;;;29.12;29.37;100455.78;6091039;23;45312;-60
2023/06/13 10:48:07;;;;;;;;;13.00;12.33;;;;;29.07;29.99;100447.78;6091300;23;45270;-62
2023/06/13 10:50:38;;;;;;;;;16.67;14.33;;;;;29.30;30.32;100484.16;6090237;23;46250;-65
2023/06/13 10:53:04;;;;;;;;;13.33;11.33;;;;;29.28;30.04;100476.00;6090631;23;45417;-62
2023/06/13 10:55:31;;;;;;;;;19.00;15.33;;;;;29.26;29.95;100477.06;6090479;23;45416;-66
2023/06/13 10:57:57;;;;;;;;;21.67;18.67;;;;;29.30;30.39;100489.66;6090642;23;45273;-69
2023/06/13 11:00:24;;;;;;;;;16.33;15.00;;;;;29.30;30.05;100478.66;6090198;23;45953;-62
2023/06/13 11:02:59;;;;;;;;;16.00;13.67;;;;;29.17;29.28;100445.41;6090961;23;45265;-62
2023/06/13 11:05:26;;;;;;;;;13.67;12.00;;;;;29.39;29.42;100473.53;6089388;23;45421;-65
2023/06/13 11:07:54;;;;;;;;;16.67;14.33;;;;;29.38;29.16;100466.22;6090496;23;45476;-59
2023/06/13 11:10:19;;;;;;;;;15.33;14.67;;;;;29.43;29.45;100481.63;6090695;23;46411;-61
2023/06/13 11:12:45;;;;;;;;;19.67;18.00;;;;;29.40;29.58;100463.41;6090798;23;45407;-63